createdAt,value
2019-01-24T00:01:09.717Z,59.47
2019-01-24T00:03:38.550Z,59.10
2019-01-24T00:06:07.029Z,65.00
2019-01-24T00:08:35.425Z,59.67
2019-01-24T00:11:04.188Z,63.87
2019-01-24T00:13:32.695Z,58.03
2019-01-24T00:16:01.193Z,57.13
2019-01-24T00:18:29.620Z,55.97
2019-01-24T00:20:58.109Z,65.63
2019-01-24T00:23:26.611Z,61.73
2019-01-24T00:25:55.021Z,61.50
2019-01-24T00:28:23.524Z,60.53
2019-01-24T00:30:51.928Z,64.60
2019-01-24T00:33:20.335Z,62.27
2019-01-24T00:35:48.805Z,63.77
2019-01-24T00:38:17.211Z,63.33
2019-01-24T00:40:45.620Z,64.47
2019-01-24T00:43:14.699Z,66.03
2019-01-24T00:45:43.231Z,64.23
2019-01-24T00:48:11.653Z,62.43
2019-01-24T00:50:40.128Z,63.37
2019-01-24T00:53:08.617Z,68.33
2019-01-24T00:55:37.032Z,67.60
2019-01-24T00:58:05.492Z,67.50
2019-01-24T01:00:33.980Z,66.50
2019-01-24T01:03:02.696Z,62.50
2019-01-24T01:05:31.196Z,64.07
2019-01-24T01:07:59.684Z,68.37
2019-01-24T01:10:28.242Z,64.30
2019-01-24T01:12:56.668Z,78.97
2019-01-24T01:15:25.163Z,65.83
2019-01-24T01:17:53.650Z,70.27
2019-01-24T01:20:22.641Z,72.43
2019-01-24T01:22:51.138Z,67.10
2019-01-24T01:25:19.774Z,66.50
2019-01-24T01:27:48.278Z,68.87
2019-01-24T01:30:17.954Z,70.83
2019-01-24T01:32:46.529Z,67.90
2019-01-24T01:35:16.173Z,72.93
2019-01-24T01:37:44.726Z,70.83
2019-01-24T01:40:13.714Z,75.60
2019-01-24T01:42:42.198Z,69.73
2019-01-24T01:45:12.302Z,76.47
2019-01-24T01:47:40.782Z,77.07
2019-01-24T01:50:10.430Z,67.00
2019-01-24T01:52:39.170Z,73.43
2019-01-24T01:55:07.650Z,78.50
2019-01-24T01:57:36.158Z,76.70
2019-01-24T02:00:06.150Z,73.97
2019-01-24T02:02:34.676Z,74.63
2019-01-24T02:05:03.166Z,78.57
2019-01-24T02:07:31.611Z,76.63
2019-01-24T02:10:00.212Z,76.13
2019-01-24T02:12:29.082Z,72.93
2019-01-24T02:14:57.566Z,74.17
2019-01-24T02:17:26.038Z,77.23
2019-01-24T02:19:54.730Z,74.83
2019-01-24T02:22:23.127Z,74.17
2019-01-24T02:24:51.606Z,77.23
2019-01-24T02:27:20.027Z,77.70
2019-01-24T02:29:48.652Z,79.37
2019-01-24T02:32:17.279Z,80.67
2019-01-24T02:34:49.681Z,70.80
2019-01-24T02:37:16.652Z,76.40
2019-01-24T02:39:45.131Z,82.63
2019-01-24T02:42:13.566Z,75.30
2019-01-24T02:44:42.047Z,74.17
2019-01-24T02:47:10.559Z,74.63
2019-01-24T02:49:39.279Z,78.43
2019-01-24T02:52:07.683Z,76.17
2019-01-24T02:54:36.163Z,78.63
2019-01-24T02:57:04.943Z,72.27
2019-01-24T02:59:33.342Z,79.23
2019-01-24T03:02:01.823Z,74.27
2019-01-24T03:04:30.343Z,76.33
2019-01-24T03:06:58.826Z,81.13
2019-01-24T03:09:27.239Z,70.83
2019-01-24T03:11:55.819Z,77.47
2019-01-24T03:14:24.295Z,80.27
2019-01-24T03:16:52.738Z,74.20
2019-01-24T03:19:21.223Z,77.60
2019-01-24T03:21:49.640Z,78.23
2019-01-24T03:24:18.167Z,78.73
2019-01-24T03:26:46.674Z,85.43
2019-01-24T03:29:15.137Z,77.83
2019-01-24T03:31:42.809Z,86.43
2019-01-24T03:34:11.275Z,79.40
2019-01-24T03:36:39.832Z,81.33
2019-01-24T03:39:08.616Z,85.37
2019-01-24T03:41:37.048Z,86.27
2019-01-24T03:44:05.792Z,86.03
2019-01-24T03:46:34.201Z,76.83
2019-01-24T03:49:02.747Z,83.60
2019-01-24T03:51:31.215Z,79.83
2019-01-24T03:53:59.828Z,80.50
2019-01-24T03:56:28.333Z,80.90
2019-01-24T03:58:56.844Z,85.90
2019-01-24T04:01:25.312Z,87.63
2019-01-24T04:03:53.816Z,88.37
2019-01-24T04:06:22.235Z,82.67
2019-01-24T04:08:50.720Z,83.83
2019-01-24T04:11:19.227Z,80.17
2019-01-24T04:13:47.713Z,80.93
2019-01-24T04:16:17.245Z,82.13
2019-01-24T04:18:45.773Z,82.63
2019-01-24T04:21:14.480Z,82.43
2019-01-24T04:23:43.060Z,87.33
2019-01-24T04:26:11.568Z,83.13
2019-01-24T04:28:40.337Z,77.77
2019-01-24T04:31:08.840Z,90.73
2019-01-24T04:33:37.348Z,85.57
2019-01-24T04:36:05.824Z,84.57
2019-01-24T04:38:34.352Z,87.07
2019-01-24T04:41:02.933Z,89.43
2019-01-24T04:43:31.473Z,87.10
2019-01-24T04:45:59.954Z,86.80
2019-01-24T04:48:28.414Z,94.60
2019-01-24T04:50:56.969Z,83.23
2019-01-24T04:53:25.477Z,84.40
2019-01-24T04:55:53.904Z,87.90
2019-01-24T04:58:22.330Z,98.87
2019-01-24T05:00:50.921Z,83.13
2019-01-24T05:03:19.332Z,86.20
2019-01-24T05:05:47.910Z,87.27
2019-01-24T05:08:17.163Z,86.13
2019-01-24T05:10:45.898Z,88.57
2019-01-24T05:13:14.348Z,90.90
2019-01-24T05:15:42.825Z,84.20
2019-01-24T05:18:11.316Z,85.63
2019-01-24T05:20:39.825Z,88.63
2019-01-24T05:23:08.268Z,85.30
2019-01-24T05:25:36.689Z,86.25
2019-01-24T05:28:05.193Z,80.30
2019-01-24T05:30:33.747Z,83.70
2019-01-24T05:33:02.288Z,86.63
2019-01-24T05:35:34.911Z,84.10
2019-01-24T05:38:00.936Z,90.73
2019-01-24T05:40:29.713Z,83.93
2019-01-24T05:42:58.167Z,82.13
2019-01-24T05:45:26.735Z,90.07
2019-01-24T05:47:55.271Z,85.03
2019-01-24T05:50:24.571Z,82.63
2019-01-24T05:52:53.340Z,84.43
2019-01-24T05:55:21.812Z,87.33
2019-01-24T05:57:50.375Z,80.33
2019-01-24T06:00:32.056Z,85.67
2019-01-24T06:03:00.511Z,84.77
2019-01-24T06:05:29.144Z,85.93
2019-01-24T06:07:57.792Z,85.77
2019-01-24T06:10:26.400Z,85.03
2019-01-24T06:12:54.828Z,87.70
2019-01-24T06:15:23.343Z,89.40
2019-01-24T06:17:51.816Z,85.10
2019-01-24T06:20:20.228Z,83.53
2019-01-24T06:22:48.721Z,81.20
2019-01-24T06:25:17.977Z,82.80
2019-01-24T06:27:46.486Z,83.43
2019-01-24T06:30:18.540Z,91.93
2019-01-24T06:32:47.048Z,85.12
2019-01-24T06:35:15.820Z,83.27
2019-01-24T06:37:44.305Z,78.23
2019-01-24T06:40:13.168Z,72.07
2019-01-24T06:42:41.668Z,80.43
2019-01-24T06:45:11.452Z,74.50
2019-01-24T06:47:39.944Z,81.83
2019-01-24T06:50:09.280Z,78.07
2019-01-24T06:52:37.800Z,81.93
2019-01-24T06:55:06.597Z,82.80
2019-01-24T06:57:35.097Z,87.63
2019-01-24T07:00:04.077Z,83.20
2019-01-24T07:02:32.577Z,82.03
2019-01-24T07:05:01.089Z,76.00
2019-01-24T07:07:29.565Z,71.93
2019-01-24T07:09:58.125Z,82.77
2019-01-24T07:12:26.565Z,83.80
2019-01-24T07:14:55.041Z,85.23
2019-01-24T07:17:23.669Z,81.87
2019-01-24T07:19:52.166Z,91.20
2019-01-24T07:22:20.653Z,86.63
2019-01-24T07:24:49.173Z,91.37
2019-01-24T07:27:18.257Z,73.80
2019-01-24T07:29:46.673Z,87.50
2019-01-24T07:32:15.181Z,84.80
2019-01-24T07:34:43.625Z,70.70
2019-01-24T07:37:12.133Z,73.13
2019-01-24T07:39:40.861Z,77.07
2019-01-24T07:42:09.361Z,80.27
2019-01-24T07:44:37.757Z,76.83
2019-01-24T07:47:06.265Z,78.03
2019-01-24T07:49:34.761Z,76.53
2019-01-24T07:52:03.254Z,77.27
2019-01-24T07:54:31.769Z,76.27
2019-01-24T07:57:00.323Z,81.13
2019-01-24T07:59:28.753Z,71.13
2019-01-24T08:01:57.278Z,71.13
2019-01-24T08:04:25.690Z,79.13
2019-01-24T08:06:54.214Z,76.87
2019-01-24T08:09:22.939Z,78.67
2019-01-24T08:11:51.438Z,73.97
2019-01-24T08:14:19.846Z,76.20
2019-01-24T08:16:48.364Z,85.67
2019-01-24T08:19:16.890Z,79.20
2019-01-24T08:21:45.426Z,74.57
2019-01-24T08:24:13.950Z,76.90
2019-01-24T08:26:42.506Z,80.80
2019-01-24T08:29:11.014Z,75.13
2019-01-24T08:31:39.686Z,78.00
2019-01-24T08:34:08.130Z,74.80
2019-01-24T08:36:36.650Z,74.60
2019-01-24T08:39:08.230Z,90.63
2019-01-24T08:41:36.722Z,75.23
2019-01-24T08:44:05.495Z,79.83
2019-01-24T08:46:34.198Z,76.33
2019-01-24T08:49:02.698Z,77.83
2019-01-24T08:51:31.255Z,74.57
2019-01-24T08:53:59.764Z,76.43
2019-01-24T08:56:28.283Z,80.37
2019-01-24T08:58:56.775Z,79.43
2019-01-24T09:01:25.387Z,80.60
2019-01-24T09:03:54.434Z,77.93
2019-01-24T09:06:22.951Z,78.20
2019-01-24T09:08:51.522Z,74.73
2019-01-24T09:11:20.115Z,77.13
2019-01-24T09:13:48.539Z,71.57
2019-01-24T09:16:17.052Z,73.00
2019-01-24T09:18:45.639Z,74.17
2019-01-24T09:21:14.156Z,65.50
2019-01-24T09:23:42.659Z,78.83
2019-01-24T09:26:11.171Z,82.07
2019-01-24T09:28:39.747Z,76.57
2019-01-24T09:31:08.241Z,82.67
2019-01-24T09:33:36.911Z,80.27
2019-01-24T09:36:05.446Z,76.93
2019-01-24T09:38:34.003Z,82.73
2019-01-24T09:41:02.499Z,80.60
2019-01-24T09:43:30.996Z,77.47
2019-01-24T09:45:59.492Z,76.73
2019-01-24T09:48:28.115Z,75.33
2019-01-24T09:50:56.607Z,76.00
2019-01-24T09:53:25.119Z,80.87
2019-01-24T09:55:53.796Z,84.57
2019-01-24T09:58:22.316Z,82.57
2019-01-24T10:00:50.836Z,82.97
2019-01-24T10:03:19.344Z,77.78
2019-01-24T10:05:47.876Z,82.73
2019-01-24T10:08:16.408Z,72.37
2019-01-24T10:10:44.908Z,77.87
2019-01-24T10:13:13.404Z,80.60
2019-01-24T10:15:43.196Z,75.80
2019-01-24T10:18:11.696Z,77.03
2019-01-24T10:20:40.480Z,78.53
2019-01-24T10:23:09.028Z,81.30
2019-01-24T10:25:38.103Z,84.07
2019-01-24T10:28:06.680Z,85.80
2019-01-24T10:30:35.156Z,81.97
2019-01-24T10:33:03.636Z,89.03
2019-01-24T10:35:32.137Z,95.20
2019-01-24T10:38:00.696Z,90.30
2019-01-24T10:40:29.960Z,84.83
2019-01-24T10:42:58.476Z,78.07
2019-01-24T10:45:26.948Z,80.33
2019-01-24T10:47:55.752Z,81.73
2019-01-24T10:50:24.508Z,84.83
2019-01-24T10:52:53.000Z,94.73
2019-01-24T10:55:22.324Z,88.43
2019-01-24T10:57:51.101Z,86.60
2019-01-24T11:00:41.640Z,81.57
2019-01-24T11:03:11.345Z,83.93
2019-01-24T11:05:39.836Z,85.60
2019-01-24T11:08:08.353Z,84.17
2019-01-24T11:10:36.921Z,79.67
2019-01-24T11:13:05.397Z,94.50
2019-01-24T11:15:35.437Z,85.57
2019-01-24T11:18:05.528Z,93.00
2019-01-24T11:20:34.001Z,80.93
2019-01-24T11:23:02.649Z,106.10
2019-01-24T11:25:31.265Z,78.93
2019-01-24T11:27:59.697Z,86.80
2019-01-24T11:30:28.377Z,95.37
2019-01-24T11:32:57.021Z,88.43
2019-01-24T11:35:27.681Z,88.07
2019-01-24T11:37:56.222Z,83.40
2019-01-24T11:40:24.713Z,84.70
2019-01-24T11:42:53.209Z,82.40
2019-01-24T11:45:22.605Z,91.70
2019-01-24T11:47:51.085Z,106.30
2019-01-24T11:50:19.885Z,81.63
2019-01-24T11:52:48.294Z,89.10
2019-01-24T11:55:17.432Z,87.10
2019-01-24T11:57:45.905Z,85.23
2019-01-24T12:00:22.113Z,82.57
2019-01-24T12:02:50.617Z,78.77
2019-01-24T12:05:19.906Z,89.70
2019-01-24T12:07:48.633Z,94.30
2019-01-24T12:10:17.921Z,92.53
2019-01-24T12:12:46.415Z,122.80
2019-01-24T12:15:15.986Z,93.70
2019-01-24T12:17:44.486Z,102.97
2019-01-24T12:20:14.453Z,88.73
2019-01-24T12:22:42.874Z,91.80
2019-01-24T12:25:11.688Z,94.13
2019-01-24T12:27:40.186Z,76.00
2019-01-24T12:30:13.446Z,94.93
2019-01-24T12:32:41.942Z,101.57
2019-01-24T12:35:10.562Z,88.43
2019-01-24T12:37:39.050Z,83.43
2019-01-24T12:40:07.670Z,87.37
2019-01-24T12:42:36.166Z,85.80
2019-01-24T12:45:05.362Z,87.40
2019-01-24T12:47:33.770Z,101.37
2019-01-24T12:50:02.263Z,102.83
2019-01-24T12:52:30.762Z,87.07
2019-01-24T12:54:59.298Z,93.77
2019-01-24T12:57:27.714Z,87.23
2019-01-24T12:59:56.118Z,95.00
2019-01-24T13:02:24.594Z,86.87
2019-01-24T13:04:53.062Z,93.20
2019-01-24T13:07:21.562Z,94.10
2019-01-24T13:09:50.055Z,87.70
2019-01-24T13:12:18.586Z,85.43
2019-01-24T13:14:47.330Z,84.37
2019-01-24T13:17:15.846Z,86.80
2019-01-24T13:19:44.331Z,86.73
2019-01-24T13:22:13.823Z,80.33
2019-01-24T13:24:42.671Z,87.70
2019-01-24T13:27:11.159Z,97.57
2019-01-24T13:29:39.691Z,96.90
2019-01-24T13:32:08.158Z,114.73
2019-01-24T13:34:36.671Z,100.17
2019-01-24T13:37:05.322Z,87.00
2019-01-24T13:39:34.059Z,91.67
2019-01-24T13:42:02.608Z,80.93
2019-01-24T13:44:31.223Z,124.87
2019-01-24T13:46:59.711Z,83.13
2019-01-24T13:49:28.147Z,90.50
2019-01-24T13:51:56.628Z,94.87
2019-01-24T13:54:25.076Z,98.27
2019-01-24T13:56:53.643Z,85.87
2019-01-24T13:59:22.191Z,86.37
2019-01-24T14:01:50.720Z,88.43
2019-01-24T14:04:21.013Z,120.77
2019-01-24T14:06:49.560Z,94.90
2019-01-24T14:09:18.687Z,86.10
2019-01-24T14:11:47.165Z,85.23
2019-01-24T14:14:15.764Z,85.23
2019-01-24T14:16:44.263Z,85.30
2019-01-24T14:19:12.852Z,90.53
2019-01-24T14:21:41.343Z,94.30
2019-01-24T14:24:09.876Z,91.57
2019-01-24T14:26:38.300Z,82.73
2019-01-24T14:29:06.868Z,79.70
2019-01-24T14:31:35.386Z,86.40
2019-01-24T14:34:04.088Z,92.63
2019-01-24T14:36:32.657Z,88.27
2019-01-24T14:39:01.176Z,91.10
2019-01-24T14:41:29.599Z,91.40
2019-01-24T14:43:58.115Z,109.60
2019-01-24T14:46:26.640Z,93.77
2019-01-24T14:48:55.072Z,90.33
2019-01-24T14:51:23.553Z,84.10
2019-01-24T14:53:52.056Z,89.27
2019-01-24T14:56:20.992Z,88.27
2019-01-24T14:58:49.487Z,90.63
2019-01-24T15:01:19.800Z,88.97
2019-01-24T15:03:48.344Z,85.30
2019-01-24T15:06:16.836Z,84.10
2019-01-24T15:08:45.360Z,112.20
2019-01-24T15:11:14.145Z,101.57
2019-01-24T15:13:42.664Z,91.93
2019-01-24T15:16:11.173Z,91.53
2019-01-24T15:18:39.688Z,95.37
2019-01-24T15:21:08.204Z,93.70
2019-01-24T15:23:36.724Z,87.73
2019-01-24T15:26:05.316Z,106.50
2019-01-24T15:28:33.832Z,98.43
2019-01-24T15:31:02.340Z,82.67
2019-01-24T15:33:30.876Z,94.93
2019-01-24T15:35:59.434Z,88.10
2019-01-24T15:38:28.109Z,92.33
2019-01-24T15:40:56.661Z,92.00
2019-01-24T15:43:25.413Z,86.90
2019-01-24T15:45:53.993Z,84.97
2019-01-24T15:48:22.541Z,74.50
2019-01-24T15:50:50.973Z,95.20
2019-01-24T15:53:19.453Z,81.30
2019-01-24T15:55:47.927Z,90.57
2019-01-24T15:58:16.416Z,92.63
2019-01-24T16:00:44.890Z,91.47
2019-01-24T16:03:13.393Z,84.87
2019-01-24T16:05:41.877Z,84.47
2019-01-24T16:08:10.357Z,93.07
2019-01-24T16:10:38.949Z,80.93
2019-01-24T16:13:07.418Z,81.97
2019-01-24T16:15:36.443Z,94.00
2019-01-24T16:18:06.414Z,85.33
2019-01-24T16:20:35.009Z,84.17
2019-01-24T16:23:03.593Z,82.90
2019-01-24T16:25:32.273Z,94.90
2019-01-24T16:28:00.753Z,85.40
2019-01-24T16:30:29.966Z,87.90
2019-01-24T16:32:58.617Z,78.80
2019-01-24T16:35:27.217Z,84.37
2019-01-24T16:37:55.754Z,84.50
2019-01-24T16:40:24.698Z,84.57
2019-01-24T16:42:53.195Z,87.77
2019-01-24T16:45:22.419Z,91.73
2019-01-24T16:47:50.916Z,94.20
2019-01-24T16:50:19.554Z,83.00
2019-01-24T16:52:48.291Z,80.17
2019-01-24T16:55:17.154Z,82.77
2019-01-24T16:57:45.882Z,85.87
2019-01-24T17:00:24.838Z,84.33
2019-01-24T17:02:53.310Z,83.23
2019-01-24T17:05:21.822Z,100.00
2019-01-24T17:07:50.578Z,84.57
2019-01-24T17:10:19.430Z,94.70
2019-01-24T17:12:47.927Z,84.67
2019-01-24T17:15:16.966Z,85.10
2019-01-24T17:17:45.541Z,88.33
2019-01-24T17:20:18.390Z,85.77
2019-01-24T17:22:46.982Z,86.27
2019-01-24T17:25:15.467Z,98.57
2019-01-24T17:27:46.393Z,88.07
2019-01-24T17:30:16.536Z,82.23
2019-01-24T17:32:45.315Z,97.80
2019-01-24T17:35:13.819Z,83.37
2019-01-24T17:37:42.302Z,81.23
2019-01-24T17:40:13.766Z,91.83
2019-01-24T17:42:42.388Z,97.10
2019-01-24T17:45:11.483Z,82.83
2019-01-24T17:47:40.003Z,83.53
2019-01-24T17:50:09.243Z,85.43
2019-01-24T17:52:37.763Z,90.27
2019-01-24T17:55:07.995Z,99.77
2019-01-24T17:57:36.507Z,94.77
2019-01-24T18:00:05.983Z,94.93
2019-01-24T18:02:34.463Z,79.70
2019-01-24T18:05:02.947Z,94.03
2019-01-24T18:07:31.370Z,86.73
2019-01-24T18:09:59.783Z,84.03
2019-01-24T18:12:28.220Z,82.27
2019-01-24T18:14:56.692Z,82.80
2019-01-24T18:17:25.435Z,92.47
2019-01-24T18:19:53.856Z,86.03
2019-01-24T18:22:22.345Z,82.27
2019-01-24T18:24:50.883Z,87.80
2019-01-24T18:27:19.408Z,95.53
2019-01-24T18:29:48.899Z,81.47
2019-01-24T18:32:17.516Z,87.97
2019-01-24T18:34:46.079Z,88.07
2019-01-24T18:37:14.656Z,87.17
2019-01-24T18:39:45.228Z,81.00
2019-01-24T18:42:13.856Z,85.27
2019-01-24T18:44:42.364Z,86.63
2019-01-24T18:47:10.932Z,91.97
2019-01-24T18:49:39.388Z,83.47
2019-01-24T18:52:07.968Z,91.77
2019-01-24T18:54:36.372Z,99.30
2019-01-24T18:57:05.317Z,96.33
2019-01-24T18:59:33.814Z,90.20
2019-01-24T19:02:02.384Z,91.17
2019-01-24T19:04:30.804Z,83.87
2019-01-24T19:06:59.340Z,112.93
2019-01-24T19:09:27.864Z,88.93
2019-01-24T19:11:56.308Z,89.07
2019-01-24T19:14:24.836Z,97.00
2019-01-24T19:16:53.258Z,91.07
2019-01-24T19:19:22.492Z,88.43
2019-01-24T19:21:50.909Z,85.67
2019-01-24T19:24:19.481Z,108.03
2019-01-24T19:26:47.942Z,86.37
2019-01-24T19:29:16.552Z,100.50
2019-01-24T19:31:45.028Z,98.87
2019-01-24T19:34:13.548Z,83.67
2019-01-24T19:36:44.237Z,89.87
2019-01-24T19:39:12.977Z,90.60
2019-01-24T19:41:41.540Z,80.10
2019-01-24T19:44:15.612Z,90.50
2019-01-24T19:46:40.234Z,87.57
2019-01-24T19:49:08.732Z,94.10
2019-01-24T19:51:37.229Z,87.50
2019-01-24T19:54:05.797Z,89.93
2019-01-24T19:56:34.313Z,83.73
2019-01-24T19:59:03.137Z,87.37
2019-01-24T20:01:31.721Z,87.33
2019-01-24T20:04:00.197Z,77.83
2019-01-24T20:06:28.740Z,86.70
2019-01-24T20:09:00.424Z,78.37
2019-01-24T20:11:27.518Z,86.53
2019-01-24T20:13:55.955Z,81.90
2019-01-24T20:16:24.538Z,78.30
2019-01-24T20:18:53.050Z,86.77
2019-01-24T20:21:21.686Z,93.53
2019-01-24T20:23:50.467Z,89.40
2019-01-24T20:26:19.649Z,88.53
2019-01-24T20:28:48.327Z,93.07
2019-01-24T20:31:16.979Z,96.67
2019-01-24T20:33:45.575Z,88.53
2019-01-24T20:36:14.111Z,85.37
2019-01-24T20:38:42.702Z,74.60
2019-01-24T20:41:11.379Z,83.80
2019-01-24T20:43:40.058Z,110.93
2019-01-24T20:46:08.970Z,85.17
2019-01-24T20:48:37.479Z,76.33
2019-01-24T20:51:06.095Z,74.27
2019-01-24T20:53:34.905Z,85.13
2019-01-24T20:56:03.505Z,80.33
2019-01-24T20:58:32.046Z,80.03
2019-01-24T21:01:00.657Z,72.37
2019-01-24T21:03:29.280Z,77.10
2019-01-24T21:05:58.021Z,84.90
2019-01-24T21:08:26.673Z,82.47
2019-01-24T21:10:55.269Z,71.40
2019-01-24T21:13:24.153Z,73.70
2019-01-24T21:15:52.792Z,84.13
2019-01-24T21:18:21.387Z,72.60
2019-01-24T21:20:50.017Z,79.03
2019-01-24T21:23:18.713Z,79.20
2019-01-24T21:25:47.320Z,73.43
2019-01-24T21:28:15.993Z,71.67
2019-01-24T21:30:44.921Z,76.60
2019-01-24T21:33:13.465Z,75.57
2019-01-24T21:35:42.079Z,68.90
2019-01-24T21:38:10.694Z,73.43
2019-01-24T21:40:39.354Z,67.70
2019-01-24T21:43:07.957Z,76.83
2019-01-24T21:45:36.829Z,72.50
2019-01-24T21:48:05.741Z,60.57
2019-01-24T21:50:34.366Z,67.43
2019-01-24T21:53:03.005Z,68.67
2019-01-24T21:55:34.638Z,69.20
2019-01-24T21:58:03.245Z,65.53
2019-01-24T22:00:31.841Z,96.13
2019-01-24T22:03:00.445Z,75.27
2019-01-24T22:05:29.111Z,74.93
2019-01-24T22:07:57.673Z,66.47
2019-01-24T22:10:26.885Z,76.07
2019-01-24T22:12:55.680Z,66.60
2019-01-24T22:15:25.777Z,73.43
2019-01-24T22:17:54.401Z,74.23
2019-01-24T22:20:23.773Z,70.73
2019-01-24T22:22:52.393Z,72.43
2019-01-24T22:25:22.245Z,72.83
2019-01-24T22:27:50.869Z,78.70
2019-01-24T22:30:28.295Z,82.17
2019-01-24T22:32:57.118Z,69.07
2019-01-24T22:35:25.645Z,78.33
2019-01-24T22:37:54.269Z,78.77
2019-01-24T22:40:23.625Z,74.97
2019-01-24T22:42:52.282Z,76.93
2019-01-24T22:45:21.762Z,69.47
2019-01-24T22:47:50.437Z,70.97
2019-01-24T22:50:19.074Z,72.20
2019-01-24T22:52:47.818Z,73.13
2019-01-24T22:55:16.555Z,74.13
2019-01-24T22:57:45.142Z,72.63
2019-01-24T23:00:19.806Z,75.93
2019-01-24T23:02:48.422Z,72.30
2019-01-24T23:05:16.982Z,76.57
2019-01-24T23:07:45.574Z,76.80
2019-01-24T23:10:14.198Z,72.60
2019-01-24T23:12:42.818Z,78.07
2019-01-24T23:15:11.629Z,75.70
2019-01-24T23:17:40.283Z,73.37
2019-01-24T23:20:08.874Z,73.80
2019-01-24T23:22:37.435Z,75.17
2019-01-24T23:25:06.174Z,72.17
2019-01-24T23:27:34.778Z,77.20
2019-01-24T23:30:04.978Z,85.27
2019-01-24T23:32:33.594Z,73.13
2019-01-24T23:35:02.317Z,78.70
2019-01-24T23:37:31.242Z,78.03
2019-01-24T23:39:59.826Z,78.93
2019-01-24T23:42:28.446Z,78.90
2019-01-24T23:44:56.994Z,73.10
2019-01-24T23:47:25.598Z,77.47
2019-01-24T23:49:54.320Z,78.20
2019-01-24T23:52:23.671Z,75.40
2019-01-24T23:54:52.362Z,105.93
2019-01-24T23:57:23.989Z,73.77
2019-01-24T23:59:51.706Z,73.27
